N678MM KSJT-KGJT
Flight info
| Callsign | N678MM |
|---|---|
| Flight time | N/A |
| Altitude | 40000 |
| Route | SJT DIVEY VANSS TAMEY HELPS HAQHY |
| Aircraft | B737/M-SDE2E3FGHIRWXY/LB1 |
Departure
| Time | 2026-04-24 21:47 |
|---|---|
| Airport | San Angelo Regional Mathis Field (KSJT) |
Arrival
| Time | N/A |
|---|---|
| Airport | Grand Junction Regional Airport (KGJT) |
| Time | Latitude | Longitude | Altitude | Speed | Heading |
|---|---|---|---|---|---|
| 2026-04-24 21:33 | 31.35434 | -100.50258 | 1916 ft | 0 kts | 7° |
| 2026-04-24 21:41 | 31.35435 | -100.50258 | 1916 ft | 1 kts | 15° |
| 2026-04-24 21:42 | 31.35451 | -100.50239 | 1916 ft | 7 kts | 48° |
| 2026-04-24 21:42 | 31.35499 | -100.50175 | 1917 ft | 14 kts | 29° |
| 2026-04-24 21:42 | 31.35562 | -100.50144 | 1917 ft | 0 kts | 19° |
| 2026-04-24 21:43 | 31.35564 | -100.50143 | 1917 ft | 2 kts | 19° |
| 2026-04-24 21:43 | 31.35618 | -100.50125 | 1917 ft | 14 kts | 7° |
| 2026-04-24 21:43 | 31.35679 | -100.50064 | 1917 ft | 13 kts | 96° |
| 2026-04-24 21:44 | 31.35666 | -100.49958 | 1919 ft | 13 kts | 99° |
| 2026-04-24 21:44 | 31.35654 | -100.49838 | 1918 ft | 17 kts | 96° |
| 2026-04-24 21:44 | 31.35636 | -100.49681 | 1917 ft | 22 kts | 98° |
| 2026-04-24 21:44 | 31.35616 | -100.49498 | 1915 ft | 23 kts | 97° |
| 2026-04-24 21:45 | 31.35572 | -100.49356 | 1909 ft | 13 kts | 108° |
| 2026-04-24 21:45 | 31.35623 | -100.49275 | 1908 ft | 14 kts | 40° |
| 2026-04-24 21:45 | 31.35699 | -100.49188 | 1910 ft | 17 kts | 44° |
| 2026-04-24 21:45 | 31.35799 | -100.49076 | 1909 ft | 22 kts | 43° |
| 2026-04-24 21:46 | 31.35914 | -100.48939 | 1916 ft | 24 kts | 37° |
| 2026-04-24 21:46 | 31.35973 | -100.48899 | 1915 ft | 4 kts | 330° |
| 2026-04-24 21:46 | 31.35977 | -100.48912 | 1915 ft | 2 kts | 278° |
| 2026-04-24 21:46 | 31.36015 | -100.49246 | 1917 ft | 87 kts | 278° |
| 2026-04-24 21:47 | 31.36130 | -100.50270 | 1951 ft | 161 kts | 278° |
| 2026-04-24 21:47 | 31.36259 | -100.51152 | 2445 ft | 168 kts | 278° |
| 2026-04-24 21:47 | 31.36471 | -100.53010 | 3873 ft | 176 kts | 276° |
| 2026-04-24 21:47 | 31.36626 | -100.54564 | 4406 ft | 210 kts | 277° |
| 2026-04-24 21:48 | 31.37086 | -100.56305 | 4726 ft | 241 kts | 306° |
| 2026-04-24 21:48 | 31.38196 | -100.57830 | 5522 ft | 250 kts | 311° |
| 2026-04-24 21:48 | 31.39367 | -100.59377 | 6361 ft | 263 kts | 310° |
| 2026-04-24 21:48 | 31.40604 | -100.61035 | 7225 ft | 275 kts | 310° |
| 2026-04-24 21:49 | 31.41871 | -100.62747 | 8262 ft | 280 kts | 310° |
| 2026-04-24 21:49 | 31.43150 | -100.64490 | 9325 ft | 284 kts | 310° |
| 2026-04-24 21:49 | 31.44441 | -100.66265 | 10354 ft | 288 kts | 308° |
| 2026-04-24 21:49 | 31.45784 | -100.68136 | 10857 ft | 314 kts | 307° |
| 2026-04-24 21:50 | 31.47246 | -100.70190 | 11117 ft | 342 kts | 307° |
| 2026-04-24 21:50 | 31.48799 | -100.72375 | 11767 ft | 353 kts | 307° |
| 2026-04-24 21:50 | 31.50380 | -100.74601 | 12698 ft | 356 kts | 306° |
| 2026-04-24 21:50 | 31.51966 | -100.76835 | 13708 ft | 357 kts | 306° |
| 2026-04-24 21:51 | 31.53559 | -100.79083 | 14672 ft | 360 kts | 306° |
| 2026-04-24 21:51 | 31.55144 | -100.81321 | 15642 ft | 363 kts | 306° |
| 2026-04-24 21:51 | 31.56765 | -100.83614 | 16561 ft | 367 kts | 306° |
| 2026-04-24 21:51 | 31.58403 | -100.85937 | 17458 ft | 370 kts | 306° |
| 2026-04-24 21:52 | 31.60047 | -100.88271 | 18378 ft | 372 kts | 306° |
| 2026-04-24 21:52 | 31.61705 | -100.90624 | 19255 ft | 376 kts | 306° |
| 2026-04-24 21:52 | 31.63380 | -100.93005 | 20020 ft | 380 kts | 306° |
| 2026-04-24 21:52 | 31.65075 | -100.95414 | 20797 ft | 384 kts | 306° |
| 2026-04-24 21:53 | 31.66780 | -100.97839 | 21619 ft | 386 kts | 306° |
| 2026-04-24 21:53 | 31.68493 | -101.00277 | 22321 ft | 389 kts | 306° |
| 2026-04-24 21:53 | 31.70225 | -101.02743 | 22933 ft | 394 kts | 306° |
| 2026-04-24 21:53 | 31.71955 | -101.05207 | 23602 ft | 396 kts | 306° |
| 2026-04-24 21:54 | 31.73729 | -101.07735 | 24289 ft | 397 kts | 306° |
| 2026-04-24 21:54 | 31.75490 | -101.10247 | 24884 ft | 400 kts | 306° |
| 2026-04-24 21:54 | 31.77242 | -101.12748 | 25476 ft | 402 kts | 306° |
| 2026-04-24 21:54 | 31.79024 | -101.15296 | 26067 ft | 404 kts | 306° |
| 2026-04-24 21:55 | 31.80809 | -101.17849 | 26639 ft | 405 kts | 306° |
| 2026-04-24 21:55 | 31.82605 | -101.20417 | 27139 ft | 407 kts | 305° |
| 2026-04-24 21:55 | 31.84409 | -101.23000 | 27622 ft | 410 kts | 305° |
| 2026-04-24 21:55 | 31.86216 | -101.25587 | 28141 ft | 410 kts | 305° |
| 2026-04-24 21:56 | 31.88041 | -101.28201 | 28635 ft | 412 kts | 305° |
| 2026-04-24 21:56 | 31.89867 | -101.30821 | 29086 ft | 414 kts | 305° |
| 2026-04-24 21:56 | 31.91672 | -101.33413 | 29522 ft | 416 kts | 305° |
| 2026-04-24 21:56 | 31.93512 | -101.36057 | 29929 ft | 418 kts | 305° |
| 2026-04-24 21:57 | 31.95351 | -101.38698 | 30466 ft | 415 kts | 305° |
| 2026-04-24 21:57 | 31.97170 | -101.41311 | 31118 ft | 410 kts | 304° |
| 2026-04-24 21:57 | 31.98975 | -101.43903 | 31722 ft | 406 kts | 304° |
| 2026-04-24 21:57 | 32.00764 | -101.46476 | 32230 ft | 404 kts | 304° |
| 2026-04-24 21:58 | 32.02540 | -101.49036 | 32741 ft | 402 kts | 304° |
| 2026-04-24 21:58 | 32.04301 | -101.51577 | 33239 ft | 399 kts | 303° |
| 2026-04-24 21:58 | 32.06032 | -101.54075 | 33742 ft | 396 kts | 303° |
| 2026-04-24 21:58 | 32.07768 | -101.56583 | 34232 ft | 393 kts | 303° |
| 2026-04-24 21:59 | 32.09496 | -101.59080 | 34622 ft | 393 kts | 303° |
| 2026-04-24 21:59 | 32.11223 | -101.61582 | 34947 ft | 393 kts | 303° |
| 2026-04-24 21:59 | 32.12949 | -101.64082 | 35317 ft | 392 kts | 303° |
| 2026-04-24 21:59 | 32.14668 | -101.66570 | 35707 ft | 391 kts | 303° |
| 2026-04-24 22:00 | 32.16383 | -101.69054 | 36065 ft | 389 kts | 303° |
| 2026-04-24 22:00 | 32.18093 | -101.71533 | 36374 ft | 389 kts | 303° |
| 2026-04-24 22:00 | 32.19798 | -101.74009 | 36723 ft | 387 kts | 302° |
| 2026-04-24 22:00 | 32.21488 | -101.76464 | 37217 ft | 382 kts | 302° |
| 2026-04-24 22:01 | 32.23142 | -101.78863 | 37625 ft | 380 kts | 302° |
| 2026-04-24 22:01 | 32.24804 | -101.81277 | 37953 ft | 378 kts | 302° |
| 2026-04-24 22:01 | 32.26463 | -101.83693 | 38242 ft | 378 kts | 302° |
| 2026-04-24 22:01 | 32.28115 | -101.86100 | 38578 ft | 376 kts | 302° |
| 2026-04-24 22:02 | 32.29757 | -101.88493 | 38902 ft | 374 kts | 302° |
| 2026-04-24 22:02 | 32.31391 | -101.90879 | 39120 ft | 374 kts | 302° |
| 2026-04-24 22:02 | 32.33035 | -101.93279 | 39252 ft | 377 kts | 302° |
| 2026-04-24 22:03 | 32.36357 | -101.98134 | 39512 ft | 381 kts | 302° |
| 2026-04-24 22:03 | 32.37463 | -101.99748 | 39655 ft | 380 kts | 302° |
| 2026-04-24 22:03 | 32.39130 | -102.02187 | 39803 ft | 382 kts | 302° |
| 2026-04-24 22:04 | 32.42493 | -102.07067 | 39840 ft | 384 kts | 305° |
| 2026-04-24 22:04 | 32.46542 | -102.11323 | 39858 ft | 393 kts | 314° |
| 2026-04-24 22:05 | 32.50895 | -102.15229 | 39848 ft | 392 kts | 314° |
| 2026-04-24 22:05 | 32.55240 | -102.19134 | 39857 ft | 391 kts | 314° |
| 2026-04-24 22:06 | 32.59534 | -102.23023 | 39861 ft | 391 kts | 314° |
| 2026-04-24 22:06 | 32.63851 | -102.26951 | 39859 ft | 390 kts | 314° |
| 2026-04-24 22:07 | 32.68156 | -102.30876 | 39868 ft | 390 kts | 314° |
| 2026-04-24 22:07 | 32.72464 | -102.34807 | 39874 ft | 391 kts | 314° |
| 2026-04-24 22:08 | 32.76774 | -102.38749 | 39881 ft | 391 kts | 314° |
| 2026-04-24 22:08 | 32.81095 | -102.42703 | 39878 ft | 392 kts | 314° |
| 2026-04-24 22:09 | 32.85416 | -102.46662 | 39884 ft | 392 kts | 314° |
| 2026-04-24 22:09 | 32.89721 | -102.50611 | 39879 ft | 393 kts | 314° |
| 2026-04-24 22:10 | 32.94053 | -102.54595 | 39884 ft | 394 kts | 314° |
| 2026-04-24 22:10 | 32.98389 | -102.58583 | 39879 ft | 394 kts | 314° |
| 2026-04-24 22:11 | 33.02734 | -102.62590 | 39871 ft | 394 kts | 314° |
| 2026-04-24 22:11 | 33.07080 | -102.66597 | 39870 ft | 395 kts | 314° |
| 2026-04-24 22:12 | 33.11401 | -102.70585 | 39869 ft | 395 kts | 314° |
| 2026-04-24 22:12 | 33.15743 | -102.74597 | 39871 ft | 394 kts | 314° |
| 2026-04-24 22:13 | 33.20083 | -102.78615 | 39867 ft | 395 kts | 314° |
| 2026-04-24 22:13 | 33.24415 | -102.82630 | 39869 ft | 394 kts | 314° |
| 2026-04-24 22:14 | 33.28747 | -102.86653 | 39870 ft | 394 kts | 314° |
| 2026-04-24 22:14 | 33.33083 | -102.90682 | 39867 ft | 394 kts | 314° |
| 2026-04-24 22:15 | 33.37409 | -102.94706 | 39872 ft | 394 kts | 314° |
| 2026-04-24 22:15 | 33.41736 | -102.98739 | 39871 ft | 394 kts | 314° |
| 2026-04-24 22:16 | 33.46063 | -103.02776 | 39869 ft | 394 kts | 314° |
| 2026-04-24 22:16 | 33.50389 | -103.06820 | 39862 ft | 395 kts | 314° |
| 2026-04-24 22:17 | 33.54689 | -103.10842 | 39864 ft | 394 kts | 314° |
| 2026-04-24 22:17 | 33.59012 | -103.14890 | 39865 ft | 394 kts | 314° |
| 2026-04-24 22:18 | 33.63326 | -103.18937 | 39867 ft | 393 kts | 314° |
| 2026-04-24 22:18 | 33.67640 | -103.22989 | 39870 ft | 393 kts | 314° |
| 2026-04-24 22:19 | 33.71951 | -103.27042 | 39861 ft | 393 kts | 314° |
| 2026-04-24 22:19 | 33.76256 | -103.31097 | 39860 ft | 393 kts | 314° |
| 2026-04-24 22:20 | 33.80562 | -103.35160 | 39855 ft | 393 kts | 314° |
| 2026-04-24 22:20 | 33.84838 | -103.39196 | 39852 ft | 393 kts | 314° |
| 2026-04-24 22:21 | 33.89136 | -103.43260 | 39854 ft | 392 kts | 314° |
| 2026-04-24 22:21 | 33.93432 | -103.47328 | 39850 ft | 392 kts | 314° |
| 2026-04-24 22:22 | 33.97730 | -103.51404 | 39852 ft | 392 kts | 314° |
| 2026-04-24 22:22 | 34.02017 | -103.55473 | 39845 ft | 392 kts | 314° |
| 2026-04-24 22:23 | 34.06306 | -103.59547 | 39841 ft | 392 kts | 314° |
| 2026-04-24 22:23 | 34.10594 | -103.63625 | 39849 ft | 392 kts | 314° |
| 2026-04-24 22:24 | 34.14849 | -103.67684 | 39854 ft | 393 kts | 314° |
| 2026-04-24 22:24 | 34.19142 | -103.71785 | 39851 ft | 393 kts | 314° |
| 2026-04-24 22:25 | 34.23426 | -103.75884 | 39852 ft | 393 kts | 314° |
| 2026-04-24 22:25 | 34.27713 | -103.79989 | 39849 ft | 393 kts | 314° |
| 2026-04-24 22:26 | 34.31997 | -103.84100 | 39852 ft | 393 kts | 314° |
| 2026-04-24 22:26 | 34.36251 | -103.88186 | 39854 ft | 393 kts | 314° |
| 2026-04-24 22:27 | 34.40536 | -103.92309 | 39854 ft | 393 kts | 314° |
| 2026-04-24 22:27 | 34.44818 | -103.96433 | 39848 ft | 393 kts | 314° |
| 2026-04-24 22:28 | 34.49097 | -104.00564 | 39844 ft | 393 kts | 314° |
| 2026-04-24 22:28 | 34.53382 | -104.04699 | 39842 ft | 393 kts | 314° |
| 2026-04-24 22:29 | 34.59780 | -104.10885 | 39848 ft | 393 kts | 314° |
| 2026-04-24 22:29 | 34.64057 | -104.15031 | 39841 ft | 393 kts | 314° |
| 2026-04-24 22:30 | 34.68331 | -104.19177 | 39844 ft | 393 kts | 314° |
| 2026-04-24 22:30 | 34.72611 | -104.23337 | 39849 ft | 393 kts | 314° |
| 2026-04-24 22:31 | 34.76856 | -104.27467 | 39859 ft | 393 kts | 314° |
| 2026-04-24 22:31 | 34.81130 | -104.31628 | 39847 ft | 393 kts | 314° |
| 2026-04-24 22:32 | 34.85396 | -104.35790 | 39852 ft | 393 kts | 314° |
| 2026-04-24 22:32 | 34.89665 | -104.39960 | 39849 ft | 393 kts | 314° |
| 2026-04-24 22:33 | 34.93940 | -104.44143 | 39860 ft | 394 kts | 314° |
| 2026-04-24 22:33 | 34.98211 | -104.48327 | 39867 ft | 394 kts | 314° |
| 2026-04-24 22:34 | 35.02466 | -104.52501 | 39858 ft | 395 kts | 314° |
| 2026-04-24 22:34 | 35.06745 | -104.56706 | 39857 ft | 395 kts | 314° |
| 2026-04-24 22:35 | 35.11020 | -104.60913 | 39864 ft | 395 kts | 314° |
| 2026-04-24 22:35 | 35.15305 | -104.65134 | 39858 ft | 395 kts | 314° |
| 2026-04-24 22:36 | 35.19587 | -104.69358 | 39871 ft | 395 kts | 314° |
| 2026-04-24 22:36 | 35.23847 | -104.73566 | 39881 ft | 395 kts | 313° |
| 2026-04-24 22:37 | 35.28122 | -104.77795 | 39893 ft | 395 kts | 313° |
| 2026-04-24 22:37 | 35.32397 | -104.82031 | 39907 ft | 395 kts | 313° |
| 2026-04-24 22:38 | 35.36673 | -104.86274 | 39905 ft | 396 kts | 313° |
| 2026-04-24 22:38 | 35.40954 | -104.90522 | 39924 ft | 396 kts | 313° |
| 2026-04-24 22:39 | 35.45239 | -104.94786 | 39926 ft | 396 kts | 313° |
| 2026-04-24 22:39 | 35.49513 | -104.99045 | 39927 ft | 397 kts | 313° |